Time;durP1;ratioP1;P1;durP2;ratioP2;P2;SDS_P1;SDS_P2;PMS_P1;PMS_P2;Temp;Humidity;BMP_temperature;BMP_pressure;BME280_temperature;BME280_humidity;BME280_pressure;Samples;Min_cycle;Max_cycle;Signal;HPM_P1;HPM_P2
2022/01/22 00:02:05;;;;;;;3.40;3.10;;;;;;;-0.37;100.00;97217.81;5050178;28;21019;-77
2022/01/22 00:04:32;;;;;;;2.93;2.57;;;;;;;-0.78;100.00;97166.97;5052543;28;20413;-77
2022/01/22 00:07:02;;;;;;;3.53;3.23;;;;;;;-0.34;100.00;97218.13;5034160;28;20480;-77
2022/01/22 00:09:52;;;;;;;2.87;2.60;;;;;;;-0.60;100.00;97209.09;5037327;28;20536;-77
2022/01/22 00:14:55;;;;;;;3.93;2.67;;;;;;;-0.48;100.00;97187.47;5051387;28;20849;-77
2022/01/22 00:17:22;;;;;;;3.00;2.70;;;;;;;-0.48;100.00;97195.28;5052644;28;20445;-77
2022/01/22 00:19:48;;;;;;;2.40;2.20;;;;;;;-0.40;100.00;97200.06;5034557;28;20891;-77
2022/01/22 00:22:15;;;;;;;4.50;3.00;;;;;;;-0.50;100.00;97182.53;5034970;28;20437;-77
2022/01/22 00:24:42;;;;;;;3.77;2.90;;;;;;;-0.60;100.00;97167.56;5051903;28;20441;-77
2022/01/22 00:27:14;;;;;;;2.57;2.07;;;;;;;-0.47;100.00;97189.06;5051851;28;20858;-77
2022/01/22 00:29:40;;;;;;;3.37;3.07;;;;;;;-0.38;100.00;97227.41;5051707;28;20441;-77
2022/01/22 00:32:07;;;;;;;3.03;2.83;;;;;;;-0.30;100.00;97228.81;5051477;28;20532;-77
2022/01/22 00:34:34;;;;;;;3.07;2.80;;;;;;;-0.60;100.00;97177.16;5052407;28;20814;-77
2022/01/22 00:37:01;;;;;;;2.77;2.57;;;;;;;-0.25;100.00;97213.34;5058625;28;20484;-77
2022/01/22 00:39:28;;;;;;;3.13;2.83;;;;;;;-0.37;100.00;97195.22;5054628;28;20512;-77
2022/01/22 00:41:55;;;;;;;3.20;2.83;;;;;;;-0.44;100.00;97173.00;5052818;28;20998;-77
2022/01/22 00:44:22;;;;;;;3.07;2.77;;;;;;;-0.40;100.00;97194.88;5052117;28;20441;-77
2022/01/22 00:46:49;;;;;;;3.70;3.33;;;;;;;-0.23;100.00;97218.31;5036005;28;20476;-77
2022/01/22 00:49:15;;;;;;;3.33;3.13;;;;;;;-0.18;100.00;97221.75;5051884;28;20452;-77
2022/01/22 00:51:42;;;;;;;3.80;3.50;;;;;;;-0.36;100.00;97194.19;5052193;28;20469;-77
2022/01/22 00:54:09;;;;;;;3.77;3.47;;;;;;;-0.39;100.00;97173.09;5035980;28;20437;-77
2022/01/22 00:56:36;;;;;;;5.10;4.17;;;;;;;-0.41;100.00;97160.31;5053064;28;20457;-77
2022/01/22 00:59:02;;;;;;;3.53;3.23;;;;;;;-0.41;100.00;97154.34;5052948;28;21009;-77
2022/01/22 01:01:29;;;;;;;3.00;2.77;;;;;;;-0.15;100.00;97169.31;5036985;28;20468;-77
2022/01/22 01:04:01;;;;;;;4.03;3.40;;;;;;;-0.27;100.00;97173.00;5051338;28;20488;-76
2022/01/22 01:06:28;;;;;;;4.50;4.10;;;;;;;-0.46;100.00;97126.47;5056228;28;20448;-76
2022/01/22 01:08:55;;;;;;;6.23;5.10;;;;;;;-0.41;100.00;97152.53;5038260;28;20528;-77
2022/01/22 01:11:26;;;;;;;4.80;4.40;;;;;;;-0.33;100.00;97178.13;5054616;28;21012;-76
2022/01/22 01:13:57;;;;;;;5.70;5.07;;;;;;;-0.11;100.00;97191.22;5054142;28;20937;-76
2022/01/22 01:17:08;;;;;;;4.80;4.40;;;;;;;-0.11;100.00;97191.22;5054091;28;20864;-76
2022/01/22 01:33:05;;;;;;;4.90;4.47;;;;;;;-0.09;100.00;97178.00;5054424;28;20924;-75
2022/01/22 01:35:36;;;;;;;7.47;5.20;;;;;;;-0.17;100.00;97155.75;5058029;28;20811;-75
2022/01/22 01:38:04;;;;;;;3.43;2.97;;;;;;;-0.26;100.00;97170.19;5056475;28;20999;-74
2022/01/22 01:40:33;;;;;;;6.17;5.30;;;;;;;-0.19;100.00;97159.63;5054073;28;20449;-74
2022/01/22 01:45:27;;;;;;;5.60;5.10;;;;;;;0.02;100.00;97195.31;5057954;28;20467;-74
2022/01/22 01:48:02;;;;;;;4.93;3.40;;;;;;;-0.01;100.00;97198.38;5055856;28;20495;-73
2022/01/22 01:50:33;;;;;;;5.63;4.30;;;;;;;-0.11;100.00;97169.66;5057172;28;20448;-72
2022/01/22 01:57:26;;;;;;;4.87;3.97;;;;;;;-0.20;100.00;97158.84;5057024;28;20948;-74
2022/01/22 01:58:29;;;;;;;8.40;5.57;;;;;;;-0.03;100.00;97196.00;5057420;28;20469;-73
2022/01/22 02:01:00;;;;;;;4.03;3.73;;;;;;;-0.09;100.00;97172.78;5065899;28;20437;-73
2022/01/22 02:03:28;;;;;;;3.90;3.60;;;;;;;0.03;100.00;97193.50;5066756;28;20455;-73
2022/01/22 02:06:04;;;;;;;4.90;4.37;;;;;;;-0.10;100.00;97166.81;5053715;28;20447;-73
2022/01/22 02:08:33;;;;;;;3.50;3.20;;;;;;;-0.10;100.00;97184.22;5037572;28;20499;-72
2022/01/22 02:11:05;;;;;;;5.13;4.63;;;;;;;-0.04;100.00;97186.63;5037937;28;20944;-73
2022/01/22 02:25:07;;;;;;;5.97;5.37;;;;;;;-0.08;100.00;97177.75;5052476;28;20448;-73
2022/01/22 02:27:34;;;;;;;5.10;4.70;;;;;;;0.05;100.00;97173.25;5035664;28;20475;-72
2022/01/22 02:30:04;;;;;;;5.90;5.30;;;;;;;-0.08;100.00;97148.38;5051940;28;20473;-72
2022/01/22 02:33:24;;;;;;;4.77;3.87;;;;;;;0.06;100.00;97169.63;5051803;28;20456;-73
2022/01/22 02:35:59;;;;;;;6.10;4.57;;;;;;;-0.28;100.00;97143.63;5051776;28;20512;-73
2022/01/22 02:38:43;;;;;;;5.20;4.73;;;;;;;0.02;100.00;97182.31;5051577;28;20464;-74
2022/01/22 02:41:16;;;;;;;5.50;4.83;;;;;;;-0.05;100.00;97163.50;5052522;28;20438;-74
2022/01/22 02:43:43;;;;;;;6.67;6.07;;;;;;;0.01;100.00;97166.97;5058420;28;20437;-74
2022/01/22 02:46:10;;;;;;;7.10;5.07;;;;;;;0.11;100.00;97175.69;5052357;28;20445;-74
2022/01/22 02:48:37;;;;;;;5.97;4.43;;;;;;;-0.08;100.00;97156.16;5034494;28;20488;-74
2022/01/22 02:51:03;;;;;;;5.63;5.13;;;;;;;0.05;100.00;97181.06;5051485;28;20957;-74
2022/01/22 02:53:30;;;;;;;4.30;3.90;;;;;;;0.02;100.00;97182.31;5034955;28;20456;-73
2022/01/22 02:55:57;;;;;;;9.10;6.10;;;;;;;0.04;100.00;97176.88;5051185;28;20437;-73
2022/01/22 02:58:25;;;;;;;6.50;5.90;;;;;;;-0.05;100.00;97159.06;5050718;28;20457;-73
2022/01/22 03:00:51;;;;;;;6.17;4.90;;;;;;;-0.15;100.00;97143.31;5051047;28;20445;-73
2022/01/22 03:03:19;;;;;;;5.50;5.10;;;;;;;-0.01;100.00;97188.75;5034531;28;20453;-73
2022/01/22 03:05:46;;;;;;;6.20;5.60;;;;;;;-0.16;100.00;97149.53;5051080;28;20449;-73
2022/01/22 03:08:14;;;;;;;5.00;4.60;;;;;;;0.03;100.00;97170.09;5034345;28;20469;-73
2022/01/22 03:10:44;;;;;;;10.53;5.90;;;;;;;0.05;100.00;97175.84;5052106;28;20460;-73
2022/01/22 03:14:22;;;;;;;8.00;6.50;;;;;;;-0.12;100.00;97157.69;5034099;28;20867;-73
2022/01/22 03:16:32;;;;;;;5.13;4.63;;;;;;;-0.02;100.00;97181.19;5050177;28;20978;-73
2022/01/22 03:19:09;;;;;;;8.00;7.03;;;;;;;-0.25;100.00;97147.59;5034115;28;20457;-73
2022/01/22 03:21:40;;;;;;;8.30;6.57;;;;;;;-0.18;100.00;97146.41;5050532;28;20856;-72
2022/01/22 03:29:40;;;;;;;8.23;5.47;;;;;;;-0.03;100.00;97162.22;5050510;28;20466;-73
2022/01/22 03:32:11;;;;;;;6.77;6.03;;;;;;;-0.15;100.00;97145.91;5034027;28;20445;-73
2022/01/22 03:34:53;;;;;;;9.27;7.37;;;;;;;0.00;100.00;97163.56;5050333;28;20891;-73
2022/01/22 03:37:20;;;;;;;6.03;5.43;;;;;;;-0.34;100.00;97137.59;5050899;28;20457;-73
2022/01/22 03:39:47;;;;;;;7.50;5.67;;;;;;;-0.24;100.00;97147.34;5050329;28;20892;-73
2022/01/22 03:42:14;;;;;;;10.23;4.80;;;;;;;-0.23;100.00;97142.94;5033678;28;20444;-73
2022/01/22 03:44:40;;;;;;;5.93;5.33;;;;;;;-0.04;100.00;97165.06;5050348;28;20556;-74
2022/01/22 03:47:08;;;;;;;6.50;5.80;;;;;;;-0.03;100.00;97166.63;5033465;28;20496;-73
2022/01/22 03:49:35;;;;;;;8.60;6.97;;;;;;;-0.09;100.00;97149.41;5050090;28;21016;-73
2022/01/22 03:52:03;;;;;;;7.57;5.70;;;;;;;0.10;100.00;97166.31;5033700;28;20952;-73
2022/01/22 03:54:30;;;;;;;6.20;5.60;;;;;;;-0.10;100.00;97140.03;5033614;28;20498;-73
2022/01/22 03:56:57;;;;;;;6.97;5.83;;;;;;;-0.03;100.00;97145.84;5033675;28;21013;-73
2022/01/22 03:59:33;;;;;;;7.10;6.50;;;;;;;0.21;100.00;97175.03;5050072;28;20503;-73
2022/01/22 04:05:18;;;;;;;8.60;7.50;;;;;;;0.20;100.00;97170.88;5050123;28;20473;-73
2022/01/22 04:10:50;;;;;;;8.23;6.27;;;;;;;0.16;100.00;97161.97;5048823;28;20433;-74
2022/01/22 04:13:20;;;;;;;7.47;5.80;;;;;;;0.24;100.00;97169.34;5032267;28;20488;-74
2022/01/22 04:15:48;;;;;;;7.17;5.70;;;;;;;0.37;100.00;97181.25;5032168;28;20484;-74
2022/01/22 04:29:20;;;;;;;6.10;5.40;;;;;;;0.41;100.00;97190.94;5048716;28;20487;-74
2022/01/22 04:31:47;;;;;;;6.13;5.53;;;;;;;0.29;100.00;97180.63;5032082;28;20436;-74
2022/01/22 04:34:15;;;;;;;6.67;5.57;;;;;;;0.28;100.00;97170.47;5031975;28;20536;-74
2022/01/22 04:36:45;;;;;;;6.33;5.73;;;;;;;0.24;100.00;97169.34;5048494;28;21113;-74
2022/01/22 04:39:12;;;;;;;7.13;5.93;;;;;;;0.33;100.00;97177.56;5032176;28;21000;-74
2022/01/22 04:41:38;;;;;;;5.43;3.97;;;;;;;0.45;100.00;97179.03;5036647;28;20484;-74
2022/01/22 04:44:06;;;;;;;7.30;4.90;;;;;;;0.50;100.00;97173.09;5036990;28;20502;-74
2022/01/22 04:57:17;;;;;;;7.63;6.40;;;;;;;0.28;100.00;97163.47;5053222;28;20465;-74
2022/01/22 04:59:45;;;;;;;4.97;4.23;;;;;;;0.31;100.00;97145.81;5036751;28;20527;-75
2022/01/22 05:02:11;;;;;;;5.00;4.47;;;;;;;0.46;100.00;97177.22;5053119;28;20486;-73
2022/01/22 05:04:44;;;;;;;4.53;3.80;;;;;;;0.36;100.00;97153.66;5053405;28;20526;-74
2022/01/22 05:07:26;;;;;;;4.40;4.00;;;;;;;0.36;100.00;97164.84;5038782;28;20973;-74
2022/01/22 05:10:16;;;;;;;4.20;3.80;;;;;;;0.51;100.00;97175.44;5053085;28;20441;-75
2022/01/22 05:12:42;;;;;;;6.53;4.70;;;;;;;0.21;100.00;97134.22;5052960;28;20441;-75
2022/01/22 05:15:10;;;;;;;4.80;4.23;;;;;;;0.45;100.00;97180.84;5036669;28;20455;-75
2022/01/22 05:17:40;;;;;;;4.63;4.23;;;;;;;0.46;100.00;97162.38;5036488;28;21022;-75
2022/01/22 05:20:30;;;;;;;4.47;4.07;;;;;;;0.36;100.00;97157.03;5037634;28;20441;-74
2022/01/22 05:23:08;;;;;;;4.37;4.00;;;;;;;0.30;100.00;97160.63;5053118;28;20465;-73
2022/01/22 05:25:43;;;;;;;4.07;3.47;;;;;;;0.47;100.00;97195.19;5053032;28;20472;-73
2022/01/22 05:37:05;;;;;;;4.63;3.67;;;;;;;0.45;100.00;97196.44;5052472;28;20500;-74
2022/01/22 05:39:33;;;;;;;3.63;3.30;;;;;;;0.54;100.00;97205.41;5052563;28;20429;-73
2022/01/22 05:42:02;;;;;;;4.50;4.10;;;;;;;0.43;100.00;97214.91;5052574;28;20445;-76
2022/01/22 05:44:32;;;;;;;4.03;3.33;;;;;;;0.25;100.00;97189.13;5052796;28;20490;-75
2022/01/22 05:47:04;;;;;;;5.03;4.33;;;;;;;0.53;100.00;97224.63;5053552;28;20445;-75
2022/01/22 05:49:37;;;;;;;4.50;3.73;;;;;;;0.35;100.00;97199.69;5035887;28;20532;-76
2022/01/22 05:52:06;;;;;;;3.40;3.10;;;;;;;0.39;100.00;97210.38;5052107;28;20955;-75
2022/01/22 06:00:08;;;;;;;3.57;3.27;;;;;;;0.37;100.00;97213.25;5052063;28;20476;-75
2022/01/22 06:02:47;;;;;;;5.20;4.07;;;;;;;0.42;100.00;97218.53;5052372;28;20545;-74
2022/01/22 06:05:18;;;;;;;4.73;4.30;;;;;;;0.50;100.00;97245.94;5052097;28;20449;-74
2022/01/22 06:07:45;;;;;;;3.50;3.20;;;;;;;0.27;100.00;97224.31;5035630;28;20473;-74
2022/01/22 06:10:17;;;;;;;4.00;3.20;;;;;;;0.45;100.00;97253.66;5051942;28;20444;-74
2022/01/22 06:12:58;;;;;;;3.83;3.53;;;;;;;0.51;100.00;97255.31;5051904;28;20815;-74
2022/01/22 06:15:28;;;;;;;3.20;2.67;;;;;;;0.59;100.00;97253.09;5051970;28;20452;-73
2022/01/22 06:18:14;;;;;;;4.70;4.30;;;;;;;0.44;100.00;97242.47;5052744;28;20467;-75
2022/01/22 06:20:43;;;;;;;4.50;4.00;;;;;;;0.26;100.00;97211.50;5051803;28;20799;-75
2022/01/22 06:23:10;;;;;;;3.67;3.30;;;;;;;0.30;100.00;97233.44;5035253;28;20533;-73
2022/01/22 06:25:37;;;;;;;4.67;3.57;;;;;;;0.29;100.00;97224.84;5051762;28;20437;-73
2022/01/22 06:28:04;;;;;;;3.37;3.03;;;;;;;0.30;100.00;97236.03;5051416;28;20473;-75
2022/01/22 06:30:33;;;;;;;4.97;4.57;;;;;;;0.37;100.00;97239.25;5035251;28;20445;-75
2022/01/22 06:33:00;;;;;;;3.80;3.13;;;;;;;0.40;100.00;97241.41;5051614;28;20449;-75
2022/01/22 06:35:27;;;;;;;4.10;3.63;;;;;;;0.19;100.00;97224.69;5034885;28;20448;-74
2022/01/22 06:37:54;;;;;;;5.33;4.03;;;;;;;0.49;100.00;97273.75;5051291;28;20457;-74
2022/01/22 06:43:25;;;;;;;3.67;3.37;;;;;;;0.45;100.00;97287.50;5052897;28;20417;-75
2022/01/22 06:46:06;;;;;;;3.60;3.30;;;;;;;0.52;100.00;97265.47;5051309;28;20449;-75
2022/01/22 06:48:40;;;;;;;3.63;3.33;;;;;;;0.44;100.00;97271.09;5035818;28;20465;-75
2022/01/22 06:51:36;;;;;;;4.53;3.80;;;;;;;0.53;100.00;97293.06;5050412;28;20441;-74
2022/01/22 06:54:05;;;;;;;3.73;3.43;;;;;;;0.53;100.00;97297.47;5034868;28;20443;-74
2022/01/22 06:56:32;;;;;;;3.50;3.20;;;;;;;0.42;100.00;97288.75;5034679;28;20506;-75
2022/01/22 06:59:11;;;;;;;3.70;3.40;;;;;;;0.49;100.00;97294.56;5051421;28;20448;-75
2022/01/22 07:01:39;;;;;;;2.93;2.70;;;;;;;0.47;100.00;97283.63;5051099;28;20476;-75
2022/01/22 07:04:15;;;;;;;5.73;4.13;;;;;;;0.53;100.00;97282.66;5050990;28;20449;-74
2022/01/22 07:06:55;;;;;;;3.30;2.80;;;;;;;0.40;100.00;97280.41;5051090;28;20465;-74
2022/01/22 07:09:22;;;;;;;3.13;2.83;;;;;;;0.53;100.00;97294.88;5051026;28;20647;-73
2022/01/22 07:11:49;;;;;;;3.70;3.40;;;;;;;0.67;100.00;97319.56;5051136;28;20483;-74
2022/01/22 07:14:17;;;;;;;3.30;2.97;;;;;;;0.66;100.00;97301.56;5050879;28;20532;-73
2022/01/22 07:16:46;;;;;;;3.30;3.00;;;;;;;0.64;100.00;97301.81;5034860;28;20524;-73
2022/01/22 07:19:24;;;;;;;3.43;3.13;;;;;;;0.67;100.00;97324.78;5050736;28;20429;-73
2022/01/22 07:22:06;;;;;;;2.40;2.20;;;;;;;0.47;100.00;97296.63;5050922;28;20476;-73
2022/01/22 07:24:40;;;;;;;4.07;3.50;;;;;;;0.62;100.00;97311.69;5035337;28;20452;-74
2022/01/22 07:27:08;;;;;;;3.57;3.27;;;;;;;0.72;100.00;97340.47;5050570;28;20464;-73
2022/01/22 07:29:34;;;;;;;2.87;2.60;;;;;;;0.81;100.00;97339.03;5050598;28;20461;-73
2022/01/22 07:32:03;;;;;;;2.60;2.40;;;;;;;0.61;100.00;97317.13;5050447;28;20490;-74
2022/01/22 07:34:31;;;;;;;2.50;2.30;;;;;;;0.57;100.00;97322.00;5034275;28;20498;-74
2022/01/22 07:37:09;;;;;;;2.70;2.50;;;;;;;0.59;100.00;97325.16;5050441;28;20515;-74
2022/01/22 07:39:36;;;;;;;3.07;2.57;;;;;;;0.24;100.00;97275.97;5050552;28;20437;-74
2022/01/22 07:42:23;;;;;;;2.00;1.90;;;;;;;0.76;100.00;97341.56;5051639;28;21179;-74
2022/01/22 07:45:10;;;;;;;4.60;2.47;;;;;;;0.58;100.00;97318.38;5051523;28;20441;-74
2022/01/22 07:47:42;;;;;;;3.63;2.80;;;;;;;0.76;100.00;97332.94;5034398;28;20843;-74
2022/01/22 07:50:17;;;;;;;3.17;2.50;;;;;;;0.71;100.00;97345.91;5034926;28;20483;-74
2022/01/22 07:52:44;;;;;;;3.10;2.80;;;;;;;0.75;100.00;97339.97;5050445;28;20483;-74
2022/01/22 07:55:11;;;;;;;3.10;2.30;;;;;;;0.76;100.00;97351.16;5050239;28;20459;-74
2022/01/22 07:57:38;;;;;;;2.73;2.50;;;;;;;0.87;100.00;97363.31;5033684;28;20532;-74
2022/01/22 08:00:08;;;;;;;3.13;2.80;;;;;;;0.88;100.00;97359.69;5034028;28;20473;-74
2022/01/22 08:02:41;;;;;;;3.10;2.90;;;;;;;0.94;100.00;97363.97;5051222;28;20468;-74
2022/01/22 08:05:25;;;;;;;3.03;2.70;;;;;;;0.77;100.00;97355.34;5050596;28;20974;-74
2022/01/22 08:08:11;;;;;;;3.00;2.80;;;;;;;0.83;100.00;97357.03;5050398;28;20615;-74
2022/01/22 08:10:58;;;;;;;2.13;1.93;;;;;;;0.94;100.00;97363.16;5049981;28;20536;-73
2022/01/22 08:13:25;;;;;;;3.00;2.80;;;;;;;0.71;100.00;97335.50;5049897;28;20468;-73
2022/01/22 08:15:52;;;;;;;3.37;3.07;;;;;;;0.86;100.00;97339.09;5036181;28;20901;-73
2022/01/22 08:18:19;;;;;;;3.20;2.77;;;;;;;0.89;100.00;97361.25;5054266;28;20459;-73
2022/01/22 08:20:47;;;;;;;3.30;2.77;;;;;;;0.92;100.00;97360.78;5038013;28;20437;-73
2022/01/22 08:23:33;;;;;;;3.50;3.17;;;;;;;1.00;100.00;97375.22;5051013;28;20494;-73
2022/01/22 08:26:21;;;;;;;3.23;2.93;;;;;;;0.80;100.00;97360.06;5074410;28;20781;-74
2022/01/22 08:29:03;;;;;;;3.37;3.07;;;;;;;0.90;100.00;97362.84;5060958;28;20565;-73
2022/01/22 08:36:52;;;;;;;6.40;5.80;;;;;;;0.92;100.00;97367.78;5053605;28;20844;-73
2022/01/22 08:39:19;;;;;;;5.07;4.63;;;;;;;0.99;100.00;97366.63;5053949;28;20439;-73
2022/01/22 08:41:50;;;;;;;4.90;4.40;;;;;;;0.94;100.00;97366.56;5048234;28;20449;-73
2022/01/22 08:44:17;;;;;;;3.27;3.00;;;;;;;1.01;100.00;97382.78;5017447;28;20441;-73
2022/01/22 08:46:44;;;;;;;4.13;2.80;;;;;;;1.13;100.00;97404.31;5033771;28;20434;-73
2022/01/22 08:49:12;;;;;;;3.40;3.10;;;;;;;1.22;100.00;97402.09;5033381;28;20474;-73
2022/01/22 08:51:46;;;;;;;2.73;2.53;;;;;;;1.26;100.00;97403.19;5034489;28;20433;-73
2022/01/22 08:54:13;;;;;;;2.90;2.67;;;;;;;1.23;100.00;97405.50;5033967;28;20441;-73
2022/01/22 08:56:40;;;;;;;3.27;2.97;;;;;;;1.27;100.00;97409.19;5033656;28;20466;-73
2022/01/22 08:59:09;;;;;;;3.17;2.97;;;;;;;1.36;100.00;97408.56;5033626;28;20430;-73
2022/01/22 09:01:41;;;;;;;2.50;2.30;;;;;;;1.22;100.00;97409.91;5049330;28;20441;-73
2022/01/22 09:04:17;;;;;;;2.73;2.53;;;;;;;1.12;100.00;97371.50;5033249;28;20443;-73
2022/01/22 09:07:04;;;;;;;3.20;2.60;;;;;;;1.21;100.00;97395.31;5034398;28;20469;-74
2022/01/22 09:09:44;;;;;;;3.23;2.90;;;;;;;1.23;100.00;97419.31;5018590;28;20885;-74
2022/01/22 09:12:37;;;;;;;2.63;2.43;;;;;;;1.28;100.00;97431.59;5032267;28;20442;-73
2022/01/22 09:15:30;;;;;;;4.20;3.30;;;;;;;1.23;100.00;97439.34;5032161;28;20442;-73
2022/01/22 09:17:58;;;;;;;3.30;3.00;;;;;;;1.26;100.00;97447.47;5045441;28;20464;-73
2022/01/22 09:23:06;;;;;;;3.13;2.90;;;;;;;1.17;100.00;97426.25;5072495;28;20461;-73
2022/01/22 09:25:33;;;;;;;3.13;2.93;;;;;;;1.31;100.00;97444.16;5055525;28;20963;-72
2022/01/22 09:28:00;;;;;;;5.07;2.77;;;;;;;1.32;100.00;97441.31;5072581;28;20464;-72
2022/01/22 09:30:30;;;;;;;3.40;2.63;;;;;;;1.21;100.00;97439.59;5072748;28;20796;-73
2022/01/22 09:32:56;;;;;;;2.80;2.57;;;;;;;1.47;100.00;97465.00;5072994;28;20440;-73
2022/01/22 09:35:52;;;;;;;3.60;3.30;;;;;;;1.39;100.00;97448.97;5064087;28;20947;-72
2022/01/22 09:38:36;;;;;;;3.27;3.07;;;;;;;1.56;100.00;97475.00;5058280;28;20529;-72
2022/01/22 09:41:29;;;;;;;4.67;4.37;;;;;;;1.62;100.00;97469.63;5064938;28;21010;-72
2022/01/22 09:44:22;;;;;;;3.43;3.13;;;;;;;1.65;100.00;97479.56;5065399;28;20464;-72
2022/01/22 09:47:04;;;;;;;2.43;2.23;;;;;;;1.59;100.00;97477.91;5072402;28;20987;-72
2022/01/22 09:49:48;;;;;;;4.87;4.47;;;;;;;1.47;100.00;97469.41;5057474;28;20456;-72
2022/01/22 09:52:53;;;;;;;3.60;3.40;;;;;;;1.57;100.00;97468.75;5068744;28;20440;-72
2022/01/22 09:55:38;;;;;;;11.00;10.13;;;;;;;1.66;100.00;97490.78;5072610;28;20415;-72
2022/01/22 09:58:28;;;;;;;4.20;3.90;;;;;;;1.56;100.00;97481.00;5073048;28;20468;-72
2022/01/22 10:01:22;;;;;;;3.60;3.40;;;;;;;1.54;100.00;97490.06;5075571;28;20448;-72
2022/01/22 10:03:51;;;;;;;3.07;2.87;;;;;;;1.70;100.00;97497.88;5072163;28;20449;-73
2022/01/22 10:06:53;;;;;;;3.70;3.23;;;;;;;1.63;100.00;97493.88;5053463;28;20961;-73
2022/01/22 10:09:34;;;;;;;3.07;2.87;;;;;;;1.68;100.00;97493.94;5056411;28;20470;-72
2022/01/22 10:12:21;;;;;;;2.30;2.10;;;;;;;1.83;100.00;97501.16;5073701;28;20554;-72
2022/01/22 10:15:12;;;;;;;2.50;2.30;;;;;;;1.88;100.00;97503.84;5072612;28;20442;-72
2022/01/22 10:17:53;;;;;;;2.60;2.40;;;;;;;1.89;100.00;97505.44;5060244;28;20993;-74
2022/01/22 10:20:32;;;;;;;2.00;1.70;;;;;;;1.70;100.00;97502.28;5035269;28;20962;-74
2022/01/22 10:23:01;;;;;;;1.77;1.67;;;;;;;1.61;100.00;97509.75;5053022;28;20417;-73
2022/01/22 10:25:31;;;;;;;2.57;2.37;;;;;;;1.57;100.00;97506.03;5035090;28;20445;-74
2022/01/22 10:28:23;;;;;;;2.50;2.30;;;;;;;1.57;100.00;97507.84;5035142;28;20465;-73
2022/01/22 10:30:58;;;;;;;2.67;2.50;;;;;;;1.50;100.00;97508.03;5034956;28;20864;-73
2022/01/22 10:34:06;;;;;;;2.23;2.03;;;;;;;1.42;100.00;97511.00;5037693;28;21143;-73
2022/01/22 10:36:59;;;;;;;3.37;3.00;;;;;;;1.37;100.00;97505.75;5052628;28;20455;-73
2022/01/22 10:39:45;;;;;;;3.00;2.80;;;;;;;1.17;100.00;97475.72;5051516;28;20445;-73
2022/01/22 10:42:25;;;;;;;3.47;3.27;;;;;;;1.27;100.00;97495.94;5051340;28;20433;-73
2022/01/22 10:44:59;;;;;;;3.60;3.20;;;;;;;1.21;100.00;97475.28;5052878;28;20429;-73
2022/01/22 10:47:28;;;;;;;4.67;4.27;;;;;;;1.33;100.00;97500.19;5034809;28;20515;-72
2022/01/22 10:50:14;;;;;;;13.33;4.63;;;;;;;1.23;100.00;97494.06;5051121;28;20465;-73
2022/01/22 10:52:51;;;;;;;2.80;2.60;;;;;;;1.38;100.00;97502.09;5051145;28;20503;-72
2022/01/22 10:55:19;;;;;;;3.37;3.07;;;;;;;1.38;100.00;97474.22;5034565;28;20528;-72
2022/01/22 10:58:08;;;;;;;7.03;5.00;;;;;;;1.63;100.00;97491.25;5035170;28;20461;-72
2022/01/22 11:00:36;;;;;;;2.97;2.70;;;;;;;1.58;100.00;97496.38;5052519;28;20414;-72
2022/01/22 11:03:20;;;;;;;3.33;3.00;;;;;;;1.48;100.00;97484.81;5034442;28;20455;-72
2022/01/22 11:05:47;;;;;;;3.37;3.07;;;;;;;1.51;100.00;97480.13;5050772;28;20861;-72
2022/01/22 11:08:14;;;;;;;2.80;2.60;;;;;;;1.73;100.00;97496.59;5050683;28;20540;-72
2022/01/22 11:10:45;;;;;;;3.10;2.80;;;;;;;1.64;100.00;97498.84;5051103;28;20438;-72
2022/01/22 11:13:12;;;;;;;2.93;2.70;;;;;;;1.48;100.00;97465.78;5051099;28;20867;-72
2022/01/22 11:15:41;;;;;;;3.83;3.03;;;;;;;1.73;100.00;97499.97;5050630;28;20449;-73
2022/01/22 11:18:09;;;;;;;3.80;3.50;;;;;;;1.67;100.00;97516.59;5050810;28;20472;-72
2022/01/22 11:20:37;;;;;;;3.53;3.30;;;;;;;1.49;100.00;97480.38;5050595;28;20975;-72
2022/01/22 11:23:04;;;;;;;5.87;4.43;;;;;;;1.83;100.00;97501.16;5051863;28;20433;-72
2022/01/22 11:25:34;;;;;;;5.60;5.00;;;;;;;1.85;100.00;97486.84;5034065;28;20437;-72
2022/01/22 11:28:02;;;;;;;4.40;4.00;;;;;;;1.99;100.00;97495.91;5050488;28;20548;-72
2022/01/22 11:30:30;;;;;;;4.60;4.07;;;;;;;1.68;100.00;97475.69;5050573;28;20552;-72
2022/01/22 11:33:18;;;;;;;3.43;3.03;;;;;;;1.67;100.00;97497.56;5051691;28;20483;-72
2022/01/22 11:36:21;;;;;;;3.20;3.00;;;;;;;1.62;100.00;97485.25;5050284;28;20476;-72
2022/01/22 11:38:53;;;;;;;3.87;3.57;;;;;;;1.88;100.00;97507.25;5050128;28;20500;-72
2022/01/22 11:41:21;;;;;;;4.50;4.10;;;;;;;1.73;100.00;97499.97;5033717;28;20430;-73
2022/01/22 11:43:51;;;;;;;5.97;5.47;;;;;;;1.63;100.00;97506.91;5033580;28;20449;-73
2022/01/22 11:46:25;;;;;;;4.07;3.73;;;;;;;1.61;100.00;97512.34;5050139;28;20796;-72
2022/01/22 11:49:19;;;;;;;4.20;3.80;;;;;;;1.68;100.00;97505.13;5049762;28;20837;-72
2022/01/22 11:51:51;;;;;;;4.53;4.13;;;;;;;1.47;100.00;97459.00;5031821;28;20487;-72
2022/01/22 11:54:21;;;;;;;4.20;3.90;;;;;;;1.25;100.00;97438.09;5050105;28;20441;-72
2022/01/22 11:56:50;;;;;;;5.10;4.60;;;;;;;1.41;100.00;97462.53;5051532;28;20517;-72
2022/01/22 11:59:19;;;;;;;5.07;4.57;;;;;;;1.69;100.00;97511.94;5033441;28;20457;-73
2022/01/22 12:01:50;;;;;;;4.50;4.10;;;;;;;1.72;100.00;97508.03;5050084;28;20997;-72
2022/01/22 12:04:18;;;;;;;5.17;4.67;;;;;;;1.64;100.00;97466.78;5049794;28;20437;-72
2022/01/22 12:07:00;;;;;;;4.83;4.43;;;;;;;1.85;100.00;97504.31;5033423;28;20441;-73
2022/01/22 12:09:33;;;;;;;5.20;4.53;;;;;;;1.87;100.00;97515.28;5050219;28;20984;-74
2022/01/22 12:15:22;;;;;;;3.63;3.33;;;;;;;1.80;100.00;97517.28;5050194;28;20446;-74
2022/01/22 12:23:37;;;;;;;3.47;3.20;;;;;;;1.94;100.00;97518.53;5050316;28;20445;-74
2022/01/22 12:26:04;;;;;;;5.03;4.30;;;;;;;1.54;100.00;97484.88;5046450;28;20548;-74
2022/01/22 12:28:48;;;;;;;7.50;3.93;;;;;;;2.00;100.00;97514.94;5034842;28;20518;-74
2022/01/22 12:31:19;;;;;;;4.07;3.63;;;;;;;1.94;100.00;97508.09;5040012;28;20429;-75
2022/01/22 12:33:53;;;;;;;3.83;3.07;;;;;;;1.71;100.00;97488.22;5051336;28;20421;-75
2022/01/22 12:36:26;;;;;;;3.17;2.60;;;;;;;1.99;100.00;97498.50;5049896;28;20885;-75
2022/01/22 12:39:17;;;;;;;3.40;2.90;;;;;;;1.93;100.00;97498.69;5050133;28;20449;-75
2022/01/22 12:41:56;;;;;;;3.67;3.33;;;;;;;1.93;100.00;97504.69;5050745;28;20461;-75
2022/01/22 12:44:28;;;;;;;3.60;3.30;;;;;;;1.98;100.00;97509.97;5052029;28;20428;-75
2022/01/22 12:47:08;;;;;;;3.17;2.80;;;;;;;1.98;100.00;97498.75;5033283;28;20825;-75
2022/01/22 12:49:36;;;;;;;4.13;3.83;;;;;;;2.09;100.00;97505.66;5049969;28;20465;-75
2022/01/22 12:52:10;;;;;;;3.70;3.40;;;;;;;2.00;100.00;97507.13;5033372;28;20511;-76
2022/01/22 12:54:45;;;;;;;3.20;2.90;;;;;;;2.00;100.00;97492.28;5050017;28;20437;-75
2022/01/22 12:57:20;;;;;;;4.07;3.57;;;;;;;2.03;100.00;97485.78;5050129;28;20441;-75
2022/01/22 12:59:53;;;;;;;4.80;3.50;;;;;;;1.94;100.00;97482.00;5050194;28;20457;-75
2022/01/22 13:02:41;;;;;;;3.83;3.53;;;;;;;2.07;100.00;97498.09;5037087;28;20453;-75
2022/01/22 13:05:10;;;;;;;3.57;3.27;;;;;;;1.93;100.00;97478.63;5054986;28;20779;-75
2022/01/22 13:08:07;;;;;;;4.23;3.83;;;;;;;1.84;100.00;97479.28;5034557;28;20560;-75
2022/01/22 13:10:44;;;;;;;4.10;3.80;;;;;;;1.39;100.00;97409.88;5053787;28;20461;-75
2022/01/22 13:13:17;;;;;;;4.13;3.73;;;;;;;1.81;100.00;97474.53;5053143;28;20441;-75
2022/01/22 13:15:43;;;;;;;4.57;4.17;;;;;;;1.91;100.00;97508.56;5036735;28;20471;-75
2022/01/22 13:18:11;;;;;;;3.90;3.60;;;;;;;1.90;100.00;97501.78;5053012;28;20469;-75
2022/01/22 13:20:38;;;;;;;4.73;3.30;;;;;;;2.00;100.00;97518.38;5052841;28;20864;-75
2022/01/22 13:23:19;;;;;;;3.17;2.87;;;;;;;2.03;100.00;97502.22;5058541;28;20441;-75
2022/01/22 13:25:46;;;;;;;2.30;2.10;;;;;;;1.92;100.00;97510.94;5055620;28;20444;-75
2022/01/22 13:28:15;;;;;;;2.83;2.63;;;;;;;1.97;100.00;97525.84;5054180;28;20887;-75
2022/01/22 13:30:50;;;;;;;6.73;5.00;;;;;;;2.00;100.00;97527.97;5036155;28;20906;-75
2022/01/22 13:33:20;;;;;;;4.03;3.73;;;;;;;1.90;100.00;97499.97;5052654;28;20511;-75
2022/01/22 13:39:37;;;;;;;3.47;3.13;;;;;;;1.92;100.00;97500.50;5052591;28;20464;-74
2022/01/22 13:45:07;;;;;;;3.20;3.00;;;;;;;2.03;100.00;97530.13;5052596;28;20452;-74
2022/01/22 13:47:44;;;;;;;2.70;2.50;;;;;;;1.89;100.00;97518.47;5053771;28;20548;-74
2022/01/22 13:50:11;;;;;;;3.90;3.10;;;;;;;1.95;100.00;97520.09;5036164;28;20800;-74